createdAt,value
2023-01-28T00:00:28.801Z,44.90
2023-01-28T00:01:30.469Z,41.65
2023-01-28T00:02:32.162Z,44.10
2023-01-28T00:03:33.888Z,39.30
2023-01-28T00:04:35.472Z,42.22
2023-01-28T00:05:37.303Z,42.30
2023-01-28T00:06:39.006Z,45.45
2023-01-28T00:07:40.592Z,44.75
2023-01-28T00:08:42.359Z,44.20
2023-01-28T00:09:43.983Z,44.73
2023-01-28T00:10:45.660Z,44.53
2023-01-28T00:11:47.381Z,46.05
2023-01-28T00:12:50.938Z,45.60
2023-01-28T00:13:53.177Z,49.25
2023-01-28T00:14:54.811Z,42.05
2023-01-28T00:16:00.556Z,50.10
2023-01-28T00:17:02.190Z,46.97
2023-01-28T00:18:03.921Z,47.33
2023-01-28T00:19:05.587Z,46.45
2023-01-28T00:20:07.861Z,46.77
2023-01-28T00:21:13.595Z,44.20
2023-01-28T00:22:15.450Z,44.50
2023-01-28T00:23:17.062Z,41.75
2023-01-28T00:24:18.713Z,46.92
2023-01-28T00:25:20.408Z,45.10
2023-01-28T00:26:22.323Z,44.40
2023-01-28T00:27:24.003Z,44.58
2023-01-28T00:28:25.682Z,47.20
2023-01-28T00:29:27.609Z,46.20
2023-01-28T00:30:29.198Z,47.00
2023-01-28T00:31:30.939Z,44.35
2023-01-28T00:32:32.734Z,41.60
2023-01-28T00:33:34.328Z,43.30
2023-01-28T00:34:35.924Z,46.47
2023-01-28T00:35:37.599Z,46.28
2023-01-28T00:36:39.500Z,44.88
2023-01-28T00:37:41.091Z,47.22
2023-01-28T00:38:42.839Z,45.30
2023-01-28T00:39:44.425Z,46.60
2023-01-28T00:40:46.744Z,45.92
2023-01-28T00:41:48.489Z,42.50
2023-01-28T00:42:50.171Z,46.28
2023-01-28T00:43:52.184Z,49.55
2023-01-28T00:44:53.790Z,45.78
2023-01-28T00:45:55.416Z,49.55
2023-01-28T00:46:57.330Z,42.35
2023-01-28T00:47:58.991Z,41.58
2023-01-28T00:49:01.802Z,49.08
2023-01-28T00:50:03.965Z,50.07
2023-01-28T00:51:05.858Z,51.78
2023-01-28T00:52:07.514Z,50.15
2023-01-28T00:53:09.138Z,49.97
2023-01-28T00:54:12.636Z,50.55
2023-01-28T00:55:15.237Z,49.92
2023-01-28T00:56:17.964Z,48.92
2023-01-28T00:57:19.608Z,46.47
2023-01-28T00:58:21.247Z,49.28
2023-01-28T00:59:22.960Z,48.67
2023-01-28T01:00:25.812Z,50.10
2023-01-28T01:01:27.755Z,44.80
2023-01-28T01:02:29.460Z,49.28
2023-01-28T01:03:31.097Z,51.42
2023-01-28T01:04:35.438Z,50.65
2023-01-28T01:05:37.080Z,50.20
2023-01-28T01:06:40.082Z,49.63
2023-01-28T01:07:41.957Z,48.63
2023-01-28T01:08:50.548Z,48.90
2023-01-28T01:09:52.316Z,48.27
2023-01-28T01:10:53.993Z,50.47
2023-01-28T01:11:55.674Z,52.33
2023-01-28T01:12:59.176Z,50.60
2023-01-28T01:14:01.191Z,45.70
2023-01-28T01:15:03.097Z,46.75
2023-01-28T01:16:07.026Z,49.78
2023-01-28T01:17:08.658Z,49.28
2023-01-28T01:18:10.326Z,49.85
2023-01-28T01:19:11.955Z,50.40
2023-01-28T01:20:24.430Z,49.78
2023-01-28T01:21:27.409Z,49.42
2023-01-28T01:22:29.089Z,51.97
2023-01-28T01:23:31.266Z,51.45
2023-01-28T01:24:34.292Z,47.38
2023-01-28T01:25:35.923Z,54.95
2023-01-28T01:26:37.526Z,49.80
2023-01-28T01:27:39.195Z,48.15
2023-01-28T01:28:40.979Z,49.97
2023-01-28T01:29:42.583Z,54.37
2023-01-28T01:30:44.194Z,49.67
2023-01-28T01:31:45.847Z,50.60
2023-01-28T01:32:47.534Z,48.10
2023-01-28T01:33:49.893Z,54.38
2023-01-28T01:34:51.839Z,48.38
2023-01-28T01:35:54.902Z,53.15
2023-01-28T01:36:56.536Z,48.13
2023-01-28T01:37:58.140Z,54.60
2023-01-28T01:38:59.853Z,49.60
2023-01-28T01:40:05.103Z,53.10
2023-01-28T01:41:07.047Z,49.50
2023-01-28T01:42:12.349Z,53.08
2023-01-28T01:43:20.647Z,50.55
2023-01-28T01:45:01.803Z,50.83
2023-01-28T01:46:03.484Z,52.08
2023-01-28T01:47:05.136Z,50.17
2023-01-28T01:48:13.648Z,51.70
2023-01-28T01:49:21.907Z,51.65
2023-01-28T01:50:29.449Z,48.90
2023-01-28T01:51:31.495Z,52.20
2023-01-28T01:52:34.218Z,53.80
2023-01-28T01:53:36.696Z,54.15
2023-01-28T01:54:38.459Z,48.63
2023-01-28T01:55:42.078Z,51.80
2023-01-28T01:56:44.473Z,53.72
2023-01-28T01:57:46.082Z,46.42
2023-01-28T01:58:48.623Z,52.50
2023-01-28T01:59:50.233Z,54.55
2023-01-28T02:00:52.015Z,53.08
2023-01-28T02:01:53.636Z,56.53
2023-01-28T02:02:56.770Z,52.85
2023-01-28T02:04:21.036Z,49.60
2023-01-28T02:05:22.912Z,52.00
2023-01-28T02:06:24.808Z,52.40
2023-01-28T02:07:26.471Z,52.28
2023-01-28T02:08:28.162Z,53.88
2023-01-28T02:09:31.437Z,52.08
2023-01-28T02:10:33.051Z,49.70
2023-01-28T02:11:34.758Z,51.28
2023-01-28T02:12:37.583Z,52.27
2023-01-28T02:13:42.518Z,48.75
2023-01-28T02:14:46.080Z,50.97
2023-01-28T02:15:47.736Z,49.28
2023-01-28T02:16:49.342Z,52.15
2023-01-28T02:17:51.127Z,55.83
2023-01-28T02:18:52.723Z,53.42
2023-01-28T02:20:04.702Z,46.05
2023-01-28T02:21:33.903Z,48.83
2023-01-28T02:22:53.891Z,54.42
2023-01-28T02:24:28.971Z,47.90
2023-01-28T02:25:36.590Z,46.78
2023-01-28T02:26:59.980Z,47.67
2023-01-28T02:28:28.947Z,50.25
2023-01-28T02:29:45.787Z,49.70
2023-01-28T02:31:11.337Z,51.88
2023-01-28T02:32:51.698Z,53.35
2023-01-28T02:33:56.200Z,49.83
2023-01-28T02:35:10.283Z,48.67
2023-01-28T02:36:51.238Z,45.95
2023-01-28T02:37:57.446Z,47.57
2023-01-28T02:39:01.783Z,52.63
2023-01-28T02:40:10.616Z,48.83
2023-01-28T02:41:16.497Z,54.15
2023-01-28T02:42:20.035Z,46.45
2023-01-28T02:43:50.991Z,49.33
2023-01-28T02:44:52.577Z,53.78
2023-01-28T02:46:12.625Z,47.40
2023-01-28T02:47:33.173Z,49.78
2023-01-28T02:48:34.771Z,46.50
2023-01-28T02:49:45.845Z,54.28
2023-01-28T02:51:02.071Z,51.53
2023-01-28T02:52:10.194Z,50.58
2023-01-28T02:53:56.701Z,51.65
2023-01-28T02:54:59.935Z,54.63
2023-01-28T02:56:18.978Z,46.80
2023-01-28T02:57:47.605Z,49.00
2023-01-28T02:59:30.236Z,50.22
2023-01-28T03:00:48.266Z,50.97
2023-01-28T03:01:49.955Z,48.78
2023-01-28T03:03:30.528Z,48.80
2023-01-28T03:04:34.823Z,45.83
2023-01-28T03:05:39.145Z,47.45
2023-01-28T03:06:44.112Z,50.88
2023-01-28T03:07:45.725Z,56.17
2023-01-28T03:09:23.710Z,55.00
2023-01-28T03:10:26.376Z,50.28
2023-01-28T03:11:46.812Z,52.38
2023-01-28T03:13:14.960Z,46.10
2023-01-28T03:14:35.461Z,47.72
2023-01-28T03:16:00.038Z,50.60
2023-01-28T03:17:20.208Z,44.40
2023-01-28T03:19:04.075Z,53.33
2023-01-28T03:20:25.497Z,49.85
2023-01-28T03:21:51.721Z,49.72
2023-01-28T03:23:12.273Z,48.92
2023-01-28T03:24:51.225Z,50.10
2023-01-28T03:26:11.678Z,48.83
2023-01-28T03:27:43.351Z,46.47
2023-01-28T03:29:04.419Z,46.33
2023-01-28T03:30:28.040Z,49.80
2023-01-28T03:31:48.391Z,47.85
2023-01-28T03:33:08.574Z,47.35
2023-01-28T03:34:28.517Z,47.65
2023-01-28T03:35:49.504Z,46.78
2023-01-28T03:36:51.208Z,46.40
2023-01-28T03:37:52.889Z,44.33
2023-01-28T03:38:54.610Z,43.45
2023-01-28T03:39:58.266Z,45.58
2023-01-28T03:41:01.166Z,48.38
2023-01-28T03:42:07.743Z,49.63
2023-01-28T03:43:09.327Z,48.92
2023-01-28T03:44:29.545Z,50.30
2023-01-28T03:45:31.320Z,48.53
2023-01-28T03:46:32.940Z,49.43
2023-01-28T03:47:34.553Z,45.90
2023-01-28T03:48:36.164Z,47.60
2023-01-28T03:49:50.714Z,45.15
2023-01-28T03:50:52.538Z,46.63
2023-01-28T03:51:54.141Z,45.00
2023-01-28T03:53:13.536Z,45.67
2023-01-28T03:54:16.673Z,47.47
2023-01-28T03:55:18.295Z,44.85
2023-01-28T03:56:24.512Z,46.63
2023-01-28T03:57:27.610Z,45.77
2023-01-28T03:58:53.776Z,45.30
2023-01-28T03:59:55.505Z,45.92
2023-01-28T04:00:57.114Z,47.90
2023-01-28T04:01:58.862Z,45.22
2023-01-28T04:03:01.231Z,45.30
2023-01-28T04:04:03.174Z,43.33
2023-01-28T04:05:07.155Z,48.60
2023-01-28T04:06:09.385Z,48.13
2023-01-28T04:07:11.376Z,48.22
2023-01-28T04:08:13.228Z,48.87
2023-01-28T04:09:14.840Z,48.00
2023-01-28T04:10:16.775Z,44.13
2023-01-28T04:11:20.245Z,48.67
2023-01-28T04:12:23.687Z,44.90
2023-01-28T04:13:25.375Z,49.72
2023-01-28T04:14:27.025Z,48.88
2023-01-28T04:15:28.701Z,46.88
2023-01-28T04:16:30.359Z,49.50
2023-01-28T04:17:32.059Z,47.38
2023-01-28T04:18:33.680Z,49.83
2023-01-28T04:19:37.359Z,49.28
2023-01-28T04:20:39.275Z,45.88
2023-01-28T04:21:41.135Z,47.10
2023-01-28T04:22:43.530Z,48.17
2023-01-28T04:23:45.190Z,45.10
2023-01-28T04:24:46.778Z,44.90
2023-01-28T04:25:50.454Z,42.35
2023-01-28T04:26:52.074Z,47.72
2023-01-28T04:27:53.920Z,46.53
2023-01-28T04:28:55.584Z,44.88
2023-01-28T04:29:57.259Z,47.25
2023-01-28T04:30:58.946Z,44.72
2023-01-28T04:32:00.596Z,46.30
2023-01-28T04:33:02.209Z,49.80
2023-01-28T04:34:03.787Z,46.72
2023-01-28T04:35:05.749Z,45.33
2023-01-28T04:36:07.539Z,47.67
2023-01-28T04:37:09.420Z,44.03
2023-01-28T04:38:11.050Z,42.40
2023-01-28T04:39:12.683Z,50.63
2023-01-28T04:40:14.409Z,49.58
2023-01-28T04:41:16.093Z,48.97
2023-01-28T04:42:17.685Z,46.40
2023-01-28T04:43:20.030Z,47.88
2023-01-28T04:44:21.621Z,47.78
2023-01-28T04:45:23.315Z,46.88
2023-01-28T04:46:25.081Z,48.53
2023-01-28T04:47:26.674Z,50.90
2023-01-28T04:48:30.563Z,48.95
2023-01-28T04:49:32.816Z,50.80
2023-01-28T04:50:34.570Z,47.40
2023-01-28T04:51:36.170Z,47.90
2023-01-28T04:52:37.834Z,45.60
2023-01-28T04:53:39.444Z,49.15
2023-01-28T04:54:41.193Z,48.38
2023-01-28T04:55:42.803Z,49.93
2023-01-28T04:56:44.470Z,43.95
2023-01-28T04:57:48.145Z,50.83
2023-01-28T04:58:49.741Z,50.40
2023-01-28T04:59:51.385Z,53.88
2023-01-28T05:00:59.279Z,50.22
2023-01-28T05:02:01.005Z,47.95
2023-01-28T05:03:02.673Z,53.97
2023-01-28T05:04:05.793Z,48.22
2023-01-28T05:05:09.112Z,50.20
2023-01-28T05:06:11.003Z,51.72
2023-01-28T05:07:12.641Z,56.53
2023-01-28T05:08:14.279Z,50.60
2023-01-28T05:09:15.873Z,49.72
2023-01-28T05:10:18.184Z,49.72
2023-01-28T05:11:19.796Z,45.27
2023-01-28T05:12:22.194Z,48.30
2023-01-28T05:13:23.816Z,52.67
2023-01-28T05:14:25.425Z,48.00
2023-01-28T05:15:27.038Z,49.33
2023-01-28T05:16:28.676Z,51.92
2023-01-28T05:17:30.448Z,48.33
2023-01-28T05:18:32.163Z,47.47
2023-01-28T05:19:33.791Z,49.67
2023-01-28T05:20:35.446Z,46.10
2023-01-28T05:21:37.033Z,47.33
2023-01-28T05:22:39.180Z,48.25
2023-01-28T05:23:40.796Z,47.85
2023-01-28T05:24:42.365Z,51.50
2023-01-28T05:25:44.001Z,49.25
2023-01-28T05:26:45.596Z,46.45
2023-01-28T05:27:51.509Z,46.80
2023-01-28T05:28:53.136Z,47.65
2023-01-28T05:29:54.748Z,46.30
2023-01-28T05:30:56.509Z,46.95
2023-01-28T05:31:58.148Z,43.35
2023-01-28T05:32:59.766Z,46.88
2023-01-28T05:34:01.531Z,49.73
2023-01-28T05:35:03.259Z,42.70
2023-01-28T05:36:05.355Z,45.13
2023-01-28T05:37:07.000Z,48.45
2023-01-28T05:38:08.638Z,45.08
2023-01-28T05:39:10.246Z,46.30
2023-01-28T05:40:12.467Z,47.50
2023-01-28T05:41:14.100Z,46.15
2023-01-28T05:42:15.829Z,48.33
2023-01-28T05:43:17.524Z,44.83
2023-01-28T05:44:19.122Z,49.20
2023-01-28T05:45:20.799Z,46.80
2023-01-28T05:46:22.775Z,45.47
2023-01-28T05:47:24.397Z,46.17
2023-01-28T05:48:26.141Z,44.45
2023-01-28T05:49:27.779Z,45.10
2023-01-28T05:50:29.372Z,41.10
2023-01-28T05:51:30.977Z,44.17
2023-01-28T05:52:32.705Z,46.92
2023-01-28T05:53:34.648Z,46.55
2023-01-28T05:54:36.271Z,45.30
2023-01-28T05:55:37.873Z,38.90
2023-01-28T05:56:40.372Z,45.40
2023-01-28T05:57:42.112Z,45.40
2023-01-28T05:58:45.098Z,39.55
2023-01-28T05:59:46.683Z,41.83
2023-01-28T06:00:48.398Z,43.97
2023-01-28T06:01:50.038Z,41.47
2023-01-28T06:02:52.342Z,42.33
2023-01-28T06:03:53.937Z,41.30
2023-01-28T06:04:55.592Z,39.35
2023-01-28T06:05:57.267Z,41.73
2023-01-28T06:06:59.317Z,43.60
2023-01-28T06:08:01.009Z,51.90
2023-01-28T06:09:02.608Z,43.25
2023-01-28T06:10:04.602Z,44.30
2023-01-28T06:11:06.396Z,46.28
2023-01-28T06:12:08.152Z,40.95
2023-01-28T06:13:09.796Z,43.85
2023-01-28T06:14:11.485Z,45.83
2023-01-28T06:15:13.144Z,43.05
2023-01-28T06:16:15.871Z,44.38
2023-01-28T06:17:17.501Z,41.80
2023-01-28T06:18:19.543Z,39.92
2023-01-28T06:19:21.180Z,39.17
2023-01-28T06:20:22.954Z,41.85
2023-01-28T06:21:25.152Z,41.13
2023-01-28T06:22:26.778Z,41.53
2023-01-28T06:23:28.364Z,40.22
2023-01-28T06:24:30.816Z,41.70
2023-01-28T06:25:32.474Z,44.20
2023-01-28T06:26:34.611Z,43.28
2023-01-28T06:27:36.201Z,42.42
2023-01-28T06:28:37.807Z,40.30
2023-01-28T06:29:40.200Z,41.03
2023-01-28T06:30:41.942Z,43.90
2023-01-28T06:31:43.702Z,37.92
2023-01-28T06:32:45.828Z,39.83
2023-01-28T06:33:47.560Z,39.05
2023-01-28T06:34:49.156Z,42.78
2023-01-28T06:35:50.763Z,47.42
2023-01-28T06:36:53.363Z,48.33
2023-01-28T06:37:55.211Z,48.28
2023-01-28T06:38:57.356Z,43.22
2023-01-28T06:39:58.971Z,51.63
2023-01-28T06:41:00.583Z,41.78
2023-01-28T06:42:02.183Z,41.70
2023-01-28T06:43:04.612Z,41.95
2023-01-28T06:44:06.216Z,42.38
2023-01-28T06:45:08.301Z,45.80
2023-01-28T06:46:09.934Z,37.80
2023-01-28T06:47:11.535Z,36.22
2023-01-28T06:48:14.031Z,69.60
2023-01-28T06:49:15.620Z,111.00
2023-01-28T06:50:18.052Z,169.10
2023-01-28T06:51:19.775Z,163.57
2023-01-28T06:52:21.382Z,91.63
2023-01-28T06:53:23.011Z,62.90
2023-01-28T06:54:25.273Z,61.00
2023-01-28T06:55:27.126Z,60.28
2023-01-28T06:56:28.741Z,91.65
2023-01-28T06:57:30.361Z,70.35
2023-01-28T06:58:31.968Z,52.75
2023-01-28T06:59:34.685Z,65.38
2023-01-28T07:00:36.342Z,51.55
2023-01-28T07:01:38.474Z,51.27
2023-01-28T07:02:40.144Z,51.78
2023-01-28T07:03:41.800Z,63.00
2023-01-28T07:04:44.967Z,57.60
2023-01-28T07:05:46.749Z,57.97
2023-01-28T07:06:48.532Z,54.13
2023-01-28T07:07:50.151Z,51.03
2023-01-28T07:08:51.813Z,46.00
2023-01-28T07:09:53.495Z,46.35
2023-01-28T07:10:55.104Z,43.67
2023-01-28T07:11:56.706Z,48.33
2023-01-28T07:12:59.085Z,48.45
2023-01-28T07:14:00.699Z,42.47
2023-01-28T07:15:02.316Z,74.03
2023-01-28T07:16:04.179Z,63.53
2023-01-28T07:17:05.831Z,47.47
2023-01-28T07:18:08.493Z,42.97
2023-01-28T07:19:10.689Z,46.72
2023-01-28T07:20:13.992Z,45.55
2023-01-28T07:21:15.857Z,44.20
2023-01-28T07:22:17.474Z,55.30
2023-01-28T07:23:19.170Z,68.32
2023-01-28T07:24:20.790Z,67.82
2023-01-28T07:25:22.445Z,49.38
2023-01-28T07:26:24.056Z,68.28
2023-01-28T07:27:25.647Z,85.88
2023-01-28T07:28:27.763Z,51.20
2023-01-28T07:29:29.374Z,40.65
2023-01-28T07:30:30.972Z,42.42
2023-01-28T07:31:33.011Z,37.05
2023-01-28T07:32:34.686Z,43.10
2023-01-28T07:33:36.279Z,41.35
2023-01-28T07:34:39.975Z,42.72
2023-01-28T07:35:41.605Z,45.22
2023-01-28T07:36:43.304Z,42.45
2023-01-28T07:37:51.406Z,38.25
2023-01-28T07:38:53.057Z,39.78
2023-01-28T07:39:54.666Z,37.40
2023-01-28T07:40:56.292Z,42.85
2023-01-28T07:41:57.946Z,44.30
2023-01-28T07:42:59.564Z,40.63
2023-01-28T07:44:01.312Z,41.25
2023-01-28T07:45:03.009Z,38.95
2023-01-28T07:46:04.789Z,41.95
2023-01-28T07:47:06.640Z,40.08
2023-01-28T07:48:09.753Z,38.72
2023-01-28T07:49:11.349Z,38.78
2023-01-28T07:50:13.534Z,37.85
2023-01-28T07:51:15.387Z,40.33
2023-01-28T07:52:16.990Z,41.65
2023-01-28T07:53:20.186Z,42.38
2023-01-28T07:54:21.844Z,42.42
2023-01-28T07:55:23.546Z,40.42
2023-01-28T07:56:27.360Z,42.33
2023-01-28T07:57:30.235Z,43.33
2023-01-28T07:58:35.994Z,42.25
2023-01-28T07:59:37.653Z,41.33
2023-01-28T08:00:39.502Z,41.00
2023-01-28T08:01:41.149Z,38.35
2023-01-28T08:02:45.055Z,42.38
2023-01-28T08:03:46.699Z,53.43
2023-01-28T08:04:48.377Z,44.92
2023-01-28T08:05:51.591Z,42.75
2023-01-28T08:06:53.183Z,48.00
2023-01-28T08:07:54.881Z,45.15
2023-01-28T08:08:56.492Z,42.28
2023-01-28T08:09:58.088Z,37.70
2023-01-28T08:11:00.856Z,37.13
2023-01-28T08:12:02.785Z,38.78
2023-01-28T08:13:04.462Z,38.73
2023-01-28T08:14:06.354Z,37.58
2023-01-28T08:15:08.624Z,41.83
2023-01-28T08:16:10.248Z,40.13
2023-01-28T08:17:12.084Z,38.72
2023-01-28T08:18:14.626Z,35.88
2023-01-28T08:19:18.351Z,38.83
2023-01-28T08:20:19.968Z,42.38
2023-01-28T08:21:21.659Z,40.97
2023-01-28T08:22:29.164Z,38.45
2023-01-28T08:23:34.589Z,41.33
2023-01-28T08:24:36.250Z,43.05
2023-01-28T08:25:38.008Z,40.33
2023-01-28T08:26:39.596Z,42.67
2023-01-28T08:27:41.422Z,39.78
2023-01-28T08:28:43.280Z,39.40
2023-01-28T08:29:45.021Z,37.13
2023-01-28T08:30:46.799Z,36.70
2023-01-28T08:31:48.519Z,38.03
2023-01-28T08:32:50.122Z,39.08
2023-01-28T08:33:51.779Z,41.47
2023-01-28T08:34:53.499Z,40.33
2023-01-28T08:35:55.096Z,41.17
2023-01-28T08:36:56.685Z,40.53
2023-01-28T08:37:59.634Z,41.35
2023-01-28T08:39:01.275Z,44.87
2023-01-28T08:40:03.068Z,39.67
2023-01-28T08:41:04.872Z,45.03
2023-01-28T08:42:06.968Z,43.50
2023-01-28T08:43:08.739Z,49.88
2023-01-28T08:44:10.327Z,45.15
2023-01-28T08:45:13.118Z,41.30
2023-01-28T08:46:15.124Z,42.90
2023-01-28T08:47:16.804Z,38.80
2023-01-28T08:48:18.925Z,38.80
2023-01-28T08:49:22.316Z,41.67
2023-01-28T08:50:24.976Z,40.70
2023-01-28T08:51:26.602Z,36.85
2023-01-28T08:52:28.219Z,39.30
2023-01-28T08:53:29.894Z,39.35
2023-01-28T08:54:31.508Z,38.35
2023-01-28T08:55:33.614Z,39.83
2023-01-28T08:56:35.232Z,37.80
2023-01-28T08:57:36.823Z,38.58
2023-01-28T08:58:38.493Z,41.13
2023-01-28T08:59:45.111Z,43.63
2023-01-28T09:00:47.137Z,42.33
2023-01-28T09:01:48.784Z,43.60
2023-01-28T09:02:53.640Z,41.60
2023-01-28T09:03:55.285Z,41.40
2023-01-28T09:04:56.955Z,47.17
2023-01-28T09:06:02.599Z,45.60
2023-01-28T09:07:04.247Z,42.42
2023-01-28T09:08:10.552Z,44.65
2023-01-28T09:09:12.191Z,46.97
2023-01-28T09:10:14.965Z,43.05
2023-01-28T09:11:16.698Z,41.05
2023-01-28T09:12:18.288Z,40.60
2023-01-28T09:13:19.895Z,45.75
2023-01-28T09:14:21.555Z,41.40
2023-01-28T09:15:23.189Z,39.72
2023-01-28T09:16:25.666Z,37.92
2023-01-28T09:17:27.327Z,42.70
2023-01-28T09:18:29.009Z,40.58
2023-01-28T09:19:30.669Z,40.20
2023-01-28T09:20:33.212Z,44.35
2023-01-28T09:21:34.892Z,45.70
2023-01-28T09:22:36.529Z,46.05
2023-01-28T09:23:38.356Z,49.40
2023-01-28T09:24:39.966Z,42.53
2023-01-28T09:25:41.716Z,41.65
2023-01-28T09:26:44.597Z,45.13
2023-01-28T09:27:46.263Z,39.85
2023-01-28T09:28:47.997Z,48.47
2023-01-28T09:29:49.606Z,42.60
2023-01-28T09:30:51.359Z,41.43
2023-01-28T09:31:53.104Z,47.83
2023-01-28T09:32:55.179Z,45.33
2023-01-28T09:33:57.362Z,47.38
2023-01-28T09:34:59.031Z,43.33
2023-01-28T09:36:01.553Z,40.65
2023-01-28T09:37:03.184Z,41.65
2023-01-28T09:38:05.748Z,43.90
2023-01-28T09:39:08.404Z,41.67
2023-01-28T09:40:15.108Z,47.67
2023-01-28T09:41:22.314Z,42.50
2023-01-28T09:42:23.881Z,44.47
2023-01-28T09:43:47.407Z,44.03
2023-01-28T09:44:55.086Z,42.67
2023-01-28T09:45:58.283Z,41.97
2023-01-28T09:47:02.211Z,40.38
2023-01-28T09:48:04.885Z,43.50
2023-01-28T09:49:38.325Z,43.45
2023-01-28T09:50:44.460Z,47.75
2023-01-28T09:51:52.727Z,45.57
2023-01-28T09:52:56.078Z,46.85
2023-01-28T09:53:59.364Z,40.15
2023-01-28T09:55:23.018Z,44.15
2023-01-28T09:56:32.360Z,41.75
2023-01-28T09:57:46.064Z,40.35
2023-01-28T09:58:47.737Z,40.58
2023-01-28T09:59:49.855Z,42.60
2023-01-28T10:00:54.426Z,45.00
2023-01-28T10:02:04.946Z,42.05
2023-01-28T10:03:34.969Z,42.17
2023-01-28T10:05:15.031Z,39.22
2023-01-28T10:06:21.813Z,38.15
2023-01-28T10:07:41.512Z,40.20
2023-01-28T10:09:01.689Z,37.97
2023-01-28T10:10:10.147Z,40.78
2023-01-28T10:11:44.144Z,40.55
2023-01-28T10:13:02.217Z,41.53
2023-01-28T10:14:24.871Z,41.00
2023-01-28T10:15:29.660Z,38.58
2023-01-28T10:16:44.910Z,39.00
2023-01-28T10:17:48.421Z,34.67
2023-01-28T10:18:55.273Z,39.85
2023-01-28T10:19:59.803Z,39.45
2023-01-28T10:21:06.149Z,40.10
2023-01-28T10:22:13.337Z,39.53
2023-01-28T10:23:23.289Z,36.80
2023-01-28T10:24:26.493Z,40.53
2023-01-28T10:25:30.103Z,35.03
2023-01-28T10:26:39.663Z,35.38
2023-01-28T10:27:41.279Z,38.85
2023-01-28T10:28:42.871Z,40.50
2023-01-28T10:29:46.544Z,37.30
2023-01-28T10:30:48.332Z,34.22
2023-01-28T10:32:00.744Z,41.10
2023-01-28T10:33:21.383Z,38.70
2023-01-28T10:34:23.069Z,39.38
2023-01-28T10:35:24.881Z,41.22
2023-01-28T10:36:26.509Z,36.57
2023-01-28T10:37:28.518Z,35.78
2023-01-28T10:38:30.118Z,43.15
2023-01-28T10:39:31.765Z,39.33
2023-01-28T10:40:33.752Z,36.25
2023-01-28T10:41:38.243Z,39.83
2023-01-28T10:42:44.887Z,39.50
2023-01-28T10:43:46.559Z,42.33
2023-01-28T10:44:48.211Z,40.17
2023-01-28T10:46:17.757Z,38.47
2023-01-28T10:47:57.976Z,42.20
2023-01-28T10:49:15.614Z,39.47
2023-01-28T10:50:24.784Z,36.20
2023-01-28T10:51:33.582Z,38.00
2023-01-28T10:52:35.198Z,39.83
2023-01-28T10:53:43.737Z,40.83
2023-01-28T10:54:45.348Z,33.17
2023-01-28T10:55:54.870Z,36.63
2023-01-28T10:57:03.452Z,37.47
2023-01-28T10:58:05.521Z,36.67
2023-01-28T10:59:18.256Z,39.27
2023-01-28T11:00:26.517Z,37.45
2023-01-28T11:01:53.230Z,33.15
2023-01-28T11:02:55.030Z,35.78
2023-01-28T11:03:57.578Z,35.65
2023-01-28T11:05:16.991Z,38.45
2023-01-28T11:06:26.963Z,36.63
2023-01-28T11:07:28.654Z,40.00
2023-01-28T11:08:32.204Z,35.72
2023-01-28T11:09:35.665Z,40.83
2023-01-28T11:10:37.791Z,37.83
2023-01-28T11:11:39.390Z,35.67
2023-01-28T11:12:41.945Z,37.88
2023-01-28T11:13:50.798Z,42.72
2023-01-28T11:14:58.968Z,33.72
2023-01-28T11:16:05.665Z,41.70
2023-01-28T11:17:07.411Z,41.47
2023-01-28T11:18:15.468Z,39.28
2023-01-28T11:19:18.132Z,36.33
2023-01-28T11:20:21.480Z,36.67
2023-01-28T11:21:26.998Z,36.10
2023-01-28T11:22:42.045Z,36.80
2023-01-28T11:23:53.886Z,35.42
2023-01-28T11:24:55.484Z,37.22
2023-01-28T11:26:09.279Z,34.55
2023-01-28T11:27:15.515Z,38.70
2023-01-28T11:28:20.318Z,35.25
2023-01-28T11:29:23.015Z,40.23
2023-01-28T11:30:26.648Z,38.25
2023-01-28T11:31:28.879Z,38.45
2023-01-28T11:32:31.129Z,35.67
2023-01-28T11:33:58.720Z,37.53
2023-01-28T11:35:02.982Z,41.78
2023-01-28T11:36:14.094Z,38.17
2023-01-28T11:37:16.329Z,40.47
2023-01-28T11:38:21.434Z,34.60
2023-01-28T11:39:26.098Z,43.70
2023-01-28T11:40:27.903Z,39.15
2023-01-28T11:41:33.172Z,43.42
2023-01-28T11:42:34.798Z,39.30
2023-01-28T11:43:36.400Z,36.80
2023-01-28T11:44:38.273Z,37.03
2023-01-28T11:45:58.851Z,38.50
2023-01-28T11:47:07.324Z,37.75
2023-01-28T11:48:14.753Z,35.57
2023-01-28T11:49:41.136Z,33.67
2023-01-28T11:50:51.404Z,33.40
2023-01-28T11:52:07.260Z,35.40
2023-01-28T11:53:16.768Z,35.03
2023-01-28T11:54:43.401Z,35.97
2023-01-28T11:56:12.861Z,36.88
2023-01-28T11:57:41.990Z,35.65
2023-01-28T11:59:22.433Z,39.08
2023-01-28T12:00:30.206Z,34.67
2023-01-28T12:01:34.395Z,36.93
2023-01-28T12:02:51.901Z,34.88
2023-01-28T12:04:35.863Z,37.10
2023-01-28T12:05:50.413Z,39.38
2023-01-28T12:07:40.015Z,34.17
2023-01-28T12:08:46.731Z,36.53
2023-01-28T12:09:58.532Z,39.80
2023-01-28T12:11:49.050Z,35.70
2023-01-28T12:13:03.999Z,34.17
2023-01-28T12:14:33.463Z,36.03
2023-01-28T12:16:08.046Z,36.97
2023-01-28T12:17:28.029Z,33.55
2023-01-28T12:18:43.056Z,37.88
2023-01-28T12:20:05.944Z,38.17
2023-01-28T12:21:21.799Z,35.65
2023-01-28T12:22:40.654Z,32.35
2023-01-28T12:23:51.362Z,37.67
2023-01-28T12:25:11.659Z,36.42
2023-01-28T12:26:18.668Z,35.15
2023-01-28T12:27:33.115Z,34.47
2023-01-28T12:28:46.949Z,36.17
2023-01-28T12:30:06.934Z,35.28
2023-01-28T12:31:45.133Z,34.53
2023-01-28T12:33:02.008Z,36.78
2023-01-28T12:34:51.210Z,36.08
2023-01-28T12:36:15.538Z,36.28
2023-01-28T12:37:27.530Z,35.55
2023-01-28T12:39:15.222Z,32.15
2023-01-28T12:41:02.842Z,34.92
2023-01-28T12:42:06.379Z,34.97
2023-01-28T12:43:15.283Z,32.78
2023-01-28T12:44:26.433Z,32.53
2023-01-28T12:45:32.705Z,34.13
2023-01-28T12:46:39.246Z,33.30
2023-01-28T12:47:40.948Z,32.80
2023-01-28T12:48:48.190Z,31.30
2023-01-28T12:50:02.279Z,31.30
2023-01-28T12:51:08.575Z,32.65
2023-01-28T12:52:11.265Z,33.33
2023-01-28T12:53:26.527Z,34.20
2023-01-28T12:54:30.598Z,27.90
2023-01-28T12:55:43.891Z,36.35
2023-01-28T12:56:50.471Z,30.75
2023-01-28T12:57:53.734Z,34.47
2023-01-28T12:58:57.325Z,30.92
2023-01-28T13:00:03.831Z,34.72
2023-01-28T13:01:09.009Z,35.05
2023-01-28T13:02:13.146Z,32.50
2023-01-28T13:03:28.256Z,31.60
2023-01-28T13:04:50.497Z,29.92
2023-01-28T13:05:59.068Z,27.98
2023-01-28T13:07:07.418Z,27.98
2023-01-28T13:08:27.745Z,29.58
2023-01-28T13:09:29.333Z,30.30
2023-01-28T13:10:44.092Z,31.83
2023-01-28T13:11:45.809Z,30.30
2023-01-28T13:12:47.423Z,28.75
2023-01-28T13:13:49.322Z,26.23
2023-01-28T13:14:53.825Z,30.07
2023-01-28T13:15:55.835Z,33.58
2023-01-28T13:17:08.752Z,31.02
2023-01-28T13:18:32.669Z,32.20
2023-01-28T13:19:40.433Z,30.10
2023-01-28T13:20:49.711Z,28.20
2023-01-28T13:21:51.693Z,30.13
2023-01-28T13:23:00.909Z,29.90
2023-01-28T13:24:02.528Z,30.83
2023-01-28T13:25:34.451Z,30.48
2023-01-28T13:26:44.400Z,29.23
2023-01-28T13:27:58.339Z,27.05
2023-01-28T13:29:32.523Z,31.98
2023-01-28T13:30:35.894Z,27.38
2023-01-28T13:31:39.775Z,27.58
2023-01-28T13:32:41.518Z,30.17
2023-01-28T13:33:46.376Z,31.58
2023-01-28T13:35:03.736Z,31.35
2023-01-28T13:36:42.475Z,29.42
2023-01-28T13:37:45.245Z,33.90
2023-01-28T13:38:46.854Z,33.93
2023-01-28T13:39:50.726Z,40.47
2023-01-28T13:40:57.011Z,33.90
2023-01-28T13:42:22.034Z,34.50
2023-01-28T13:43:32.647Z,31.77
2023-01-28T13:44:35.023Z,31.52
2023-01-28T13:45:36.677Z,28.10
2023-01-28T13:46:39.489Z,26.45
2023-01-28T13:47:47.026Z,28.52
2023-01-28T13:48:51.896Z,34.42
2023-01-28T13:49:57.421Z,32.10
2023-01-28T13:50:59.085Z,31.33
2023-01-28T13:52:09.284Z,33.40
2023-01-28T13:53:22.990Z,38.92
2023-01-28T13:54:24.650Z,33.20
2023-01-28T13:55:42.799Z,34.03
2023-01-28T13:57:00.479Z,30.13
2023-01-28T13:58:05.196Z,37.40
2023-01-28T13:59:15.788Z,43.88
2023-01-28T14:00:35.724Z,28.75
2023-01-28T14:01:51.468Z,28.87
2023-01-28T14:03:22.149Z,36.08
2023-01-28T14:04:39.294Z,35.45
2023-01-28T14:06:05.661Z,29.83
2023-01-28T14:07:16.780Z,28.52
2023-01-28T14:08:37.735Z,30.38
2023-01-28T14:09:58.224Z,25.73
2023-01-28T14:11:30.606Z,28.52
2023-01-28T14:12:50.637Z,34.78
2023-01-28T14:14:00.285Z,30.88
2023-01-28T14:15:52.322Z,32.83
2023-01-28T14:17:07.369Z,28.40